Time;durP1;ratioP1;P1;durP2;ratioP2;P2;SDS_P1;SDS_P2;PMS_P1;PMS_P2;Temp;Humidity;BMP_temperature;BMP_pressure;BME280_temperature;BME280_humidity;BME280_pressure;Samples;Min_cycle;Max_cycle;Signal;HPM_P1;HPM_P2
2021/11/16 00:01:11;;;;;;;64.10;31.27;;;6.60;99.90;;;;;;5066519;28;20204;-77
2021/11/16 00:03:39;;;;;;;65.90;32.00;;;6.60;99.90;;;;;;5066572;28;20201;-78
2021/11/16 00:06:06;;;;;;;70.03;32.73;;;6.60;99.90;;;;;;5066823;28;20209;-78
2021/11/16 00:08:33;;;;;;;70.57;32.50;;;6.60;99.90;;;;;;5065785;28;20220;-79
2021/11/16 00:10:59;;;;;;;62.63;28.30;;;6.60;99.90;;;;;;5066700;28;20209;-79
2021/11/16 00:13:26;;;;;;;63.33;29.97;;;6.60;99.90;;;;;;5066490;28;20207;-78
2021/11/16 00:15:54;;;;;;;65.07;30.10;;;6.60;99.90;;;;;;5066137;28;20200;-78
2021/11/16 00:18:26;;;;;;;66.93;30.57;;;6.60;99.90;;;;;;5066479;28;20209;-77
2021/11/16 00:20:55;;;;;;;61.50;30.13;;;6.60;99.90;;;;;;5066705;28;20911;-78
2021/11/16 00:23:23;;;;;;;66.10;30.23;;;6.60;99.90;;;;;;5065141;28;20194;-78
2021/11/16 00:25:53;;;;;;;67.93;31.27;;;6.50;99.90;;;;;;5066213;28;20209;-78
2021/11/16 00:28:21;;;;;;;67.43;32.40;;;6.50;99.90;;;;;;5065650;28;20263;-78
2021/11/16 00:30:48;;;;;;;75.80;32.97;;;6.60;99.90;;;;;;5076813;28;20216;-77
2021/11/16 00:33:18;;;;;;;73.47;33.13;;;6.60;99.90;;;;;;5085106;28;20201;-79
2021/11/16 00:35:45;;;;;;;65.13;31.37;;;6.50;99.90;;;;;;5085220;28;20614;-79
2021/11/16 00:38:15;;;;;;;64.80;29.67;;;6.50;99.90;;;;;;5073459;28;20201;-78
2021/11/16 00:40:43;;;;;;;61.43;30.20;;;6.50;99.90;;;;;;5065691;28;20652;-77
2021/11/16 00:43:10;;;;;;;65.30;31.43;;;6.50;99.90;;;;;;5064915;28;20205;-77
2021/11/16 00:45:39;;;;;;;58.17;29.07;;;6.50;99.90;;;;;;5066027;28;20213;-78
2021/11/16 00:48:08;;;;;;;65.27;31.07;;;6.50;99.90;;;;;;5064996;28;20221;-79
2021/11/16 00:50:37;;;;;;;71.03;32.73;;;6.50;99.90;;;;;;5065072;28;20205;-78
2021/11/16 00:53:04;;;;;;;66.30;31.77;;;6.60;99.90;;;;;;5065885;28;20269;-78
2021/11/16 00:55:33;;;;;;;70.77;33.20;;;6.60;99.90;;;;;;5065812;28;20201;-78
2021/11/16 00:57:59;;;;;;;62.37;29.80;;;6.60;99.90;;;;;;5065444;28;20220;-78
2021/11/16 01:00:27;;;;;;;64.47;31.73;;;6.60;99.90;;;;;;5065118;28;20209;-78
2021/11/16 01:02:54;;;;;;;60.70;31.40;;;6.60;99.90;;;;;;5066263;28;20209;-78
2021/11/16 01:05:21;;;;;;;61.00;29.57;;;6.50;99.90;;;;;;5064834;28;20208;-78
2021/11/16 01:07:48;;;;;;;61.30;31.27;;;6.50;99.90;;;;;;5065595;28;20225;-77
2021/11/16 01:10:17;;;;;;;63.57;30.23;;;6.50;99.90;;;;;;5074825;28;20196;-78
2021/11/16 01:12:45;;;;;;;64.47;30.90;;;6.50;99.90;;;;;;5085353;28;20197;-78
2021/11/16 01:15:14;;;;;;;62.43;30.90;;;6.50;99.90;;;;;;5085017;28;20205;-78
2021/11/16 01:17:42;;;;;;;66.93;33.07;;;6.50;99.90;;;;;;5083595;28;20908;-78
2021/11/16 01:20:12;;;;;;;63.67;31.20;;;6.50;99.90;;;;;;5085545;28;20204;-77
2021/11/16 01:22:39;;;;;;;66.00;32.47;;;6.50;99.90;;;;;;5085690;28;20201;-78
2021/11/16 01:25:08;;;;;;;67.93;33.70;;;6.50;99.90;;;;;;5064802;28;20615;-79
2021/11/16 01:27:36;;;;;;;68.57;34.67;;;6.60;99.90;;;;;;5075080;28;20212;-76
2021/11/16 01:30:06;;;;;;;72.37;34.17;;;6.60;99.90;;;;;;5085311;28;20716;-77
2021/11/16 01:32:37;;;;;;;68.87;35.93;;;6.60;99.90;;;;;;5080694;28;20209;-78
2021/11/16 01:35:06;;;;;;;68.23;34.27;;;6.60;99.90;;;;;;5065387;28;20950;-78
2021/11/16 01:37:33;;;;;;;75.30;34.70;;;6.50;99.90;;;;;;5081735;28;20208;-78
2021/11/16 01:40:00;;;;;;;77.07;35.90;;;6.50;99.90;;;;;;5083836;28;20273;-77
2021/11/16 01:42:27;;;;;;;75.60;36.43;;;6.50;99.90;;;;;;5083993;28;20208;-77
2021/11/16 01:44:54;;;;;;;66.13;33.37;;;6.50;99.90;;;;;;5085644;28;20200;-78
2021/11/16 01:47:22;;;;;;;74.67;34.73;;;6.50;99.90;;;;;;5072848;28;20252;-78
2021/11/16 01:49:49;;;;;;;70.97;34.50;;;6.40;99.90;;;;;;5064905;28;20221;-78
2021/11/16 01:52:16;;;;;;;68.07;34.23;;;6.40;99.90;;;;;;5076490;28;20208;-78
2021/11/16 01:54:43;;;;;;;73.53;33.90;;;6.40;99.90;;;;;;5084588;28;20238;-77
2021/11/16 01:57:10;;;;;;;67.83;34.33;;;6.40;99.90;;;;;;5085565;28;20208;-79
2021/11/16 01:59:37;;;;;;;66.57;32.63;;;6.50;99.90;;;;;;5083973;28;20193;-78
2021/11/16 02:02:04;;;;;;;66.80;34.90;;;6.50;99.90;;;;;;5084502;28;20216;-77
2021/11/16 02:04:33;;;;;;;70.63;34.60;;;6.50;99.90;;;;;;5084649;28;20208;-78
2021/11/16 02:07:00;;;;;;;61.93;31.97;;;6.50;99.90;;;;;;5084306;28;20205;-77
2021/11/16 02:09:27;;;;;;;62.93;32.20;;;6.50;99.90;;;;;;5077486;28;20265;-77
2021/11/16 02:11:54;;;;;;;74.80;35.97;;;6.50;99.90;;;;;;5068906;28;20219;-77
2021/11/16 02:14:22;;;;;;;70.33;33.67;;;6.50;99.90;;;;;;5077918;28;20224;-78
2021/11/16 02:16:49;;;;;;;69.80;34.37;;;6.50;99.90;;;;;;5088914;28;20216;-80
2021/11/16 02:19:19;;;;;;;67.23;33.47;;;6.50;99.90;;;;;;5088744;28;20238;-78
2021/11/16 02:21:48;;;;;;;67.30;35.27;;;6.40;99.90;;;;;;5088405;28;20599;-79
2021/11/16 02:24:14;;;;;;;61.47;32.13;;;6.40;99.90;;;;;;5087877;28;20223;-78
2021/11/16 02:26:42;;;;;;;69.23;34.33;;;6.40;99.90;;;;;;5088261;28;20204;-79
2021/11/16 02:29:09;;;;;;;63.77;32.03;;;6.50;99.90;;;;;;5077257;28;20636;-78
2021/11/16 02:31:37;;;;;;;61.33;32.67;;;6.50;99.90;;;;;;5068713;28;20208;-79
2021/11/16 02:34:05;;;;;;;66.27;34.43;;;6.40;99.90;;;;;;5067662;28;20212;-77
2021/11/16 02:36:33;;;;;;;61.73;33.93;;;6.50;99.90;;;;;;5067346;28;20217;-78
2021/11/16 02:39:02;;;;;;;61.07;32.17;;;6.40;99.90;;;;;;5068475;28;20197;-79
2021/11/16 02:41:31;;;;;;;60.23;30.53;;;6.50;99.90;;;;;;5068051;28;20251;-78
2021/11/16 02:44:00;;;;;;;60.60;31.63;;;6.40;99.90;;;;;;5068279;28;20927;-77
2021/11/16 02:46:28;;;;;;;64.00;32.90;;;6.40;99.90;;;;;;5079262;28;20559;-78
2021/11/16 02:48:55;;;;;;;58.27;31.70;;;6.40;99.90;;;;;;5087859;28;20556;-77
2021/11/16 02:51:22;;;;;;;61.73;31.57;;;6.40;99.90;;;;;;5087751;28;20200;-77
2021/11/16 02:53:49;;;;;;;65.73;34.60;;;6.40;99.90;;;;;;5083026;28;20233;-78
2021/11/16 02:56:17;;;;;;;62.37;33.83;;;6.40;99.90;;;;;;5067119;28;20617;-77
2021/11/16 02:58:44;;;;;;;53.80;28.47;;;6.40;99.90;;;;;;5067694;28;20225;-77
2021/11/16 03:01:14;;;;;;;56.87;32.27;;;6.40;99.90;;;;;;5068383;28;20220;-77
2021/11/16 03:03:42;;;;;;;58.33;30.57;;;6.40;99.90;;;;;;5066642;28;20577;-78
2021/11/16 03:06:10;;;;;;;58.30;34.03;;;6.40;99.90;;;;;;5068100;28;20205;-78
2021/11/16 03:08:40;;;;;;;65.00;35.60;;;6.40;99.90;;;;;;5067696;28;20225;-76
2021/11/16 03:11:09;;;;;;;65.77;34.40;;;6.40;99.90;;;;;;5080180;28;20204;-77
2021/11/16 03:13:39;;;;;;;61.30;31.57;;;6.40;99.90;;;;;;5087581;28;20295;-80
2021/11/16 03:16:07;;;;;;;66.57;35.43;;;6.40;99.90;;;;;;5087510;28;20521;-77
2021/11/16 03:18:34;;;;;;;65.13;33.27;;;6.30;99.90;;;;;;5085685;28;20212;-77
2021/11/16 03:21:01;;;;;;;57.90;33.03;;;6.30;99.90;;;;;;5086324;28;20204;-78
2021/11/16 03:23:28;;;;;;;57.37;31.77;;;6.40;99.90;;;;;;5087306;28;20196;-79
2021/11/16 03:25:57;;;;;;;55.70;30.93;;;6.40;99.90;;;;;;5072491;28;20215;-79
2021/11/16 03:28:27;;;;;;;56.63;30.73;;;6.40;99.90;;;;;;5066960;28;20275;-79
2021/11/16 03:30:59;;;;;;;59.00;32.87;;;6.40;99.90;;;;;;5067651;28;20205;-79
2021/11/16 03:33:27;;;;;;;56.33;32.70;;;6.40;99.90;;;;;;5067543;28;20627;-77
2021/11/16 03:35:54;;;;;;;60.60;32.23;;;6.40;99.90;;;;;;5067584;28;20221;-79
2021/11/16 03:38:22;;;;;;;60.13;34.17;;;6.30;99.90;;;;;;5066286;28;20193;-78
2021/11/16 03:40:52;;;;;;;50.77;30.70;;;6.30;99.90;;;;;;5067200;28;20205;-78
2021/11/16 03:43:19;;;;;;;56.40;32.33;;;6.30;99.90;;;;;;5077393;28;20209;-77
2021/11/16 03:45:47;;;;;;;55.77;32.17;;;6.30;99.90;;;;;;5087290;28;20197;-77
2021/11/16 03:48:16;;;;;;;53.80;33.33;;;6.30;99.90;;;;;;5087010;28;20207;-79
2021/11/16 03:50:43;;;;;;;54.07;30.73;;;6.30;99.90;;;;;;5086251;28;20220;-77
2021/11/16 03:53:11;;;;;;;58.30;31.83;;;6.30;99.90;;;;;;5086352;28;20228;-78
2021/11/16 03:55:41;;;;;;;58.03;35.00;;;6.30;99.90;;;;;;5085605;28;20281;-78
2021/11/16 03:58:10;;;;;;;58.73;32.67;;;6.30;99.90;;;;;;5087016;28;20242;-79
2021/11/16 04:00:40;;;;;;;60.77;32.80;;;6.30;99.90;;;;;;5086486;28;20692;-79
2021/11/16 04:03:07;;;;;;;65.23;33.60;;;6.30;99.90;;;;;;5069692;28;20784;-78
2021/11/16 04:05:36;;;;;;;61.20;32.17;;;6.30;99.90;;;;;;5071789;28;20208;-77
2021/11/16 04:08:03;;;;;;;69.33;37.20;;;6.30;99.90;;;;;;5087131;28;20603;-77
2021/11/16 04:10:30;;;;;;;66.00;33.23;;;6.30;99.90;;;;;;5086555;28;20229;-78
2021/11/16 04:12:57;;;;;;;65.40;34.43;;;6.30;99.90;;;;;;5086641;28;20200;-76
2021/11/16 04:15:26;;;;;;;54.70;30.70;;;6.30;99.90;;;;;;5084599;28;20209;-79
2021/11/16 04:17:55;;;;;;;56.20;30.27;;;6.30;99.90;;;;;;5086693;28;20838;-77
2021/11/16 04:20:24;;;;;;;58.77;32.67;;;6.30;99.90;;;;;;5071491;28;20205;-79
2021/11/16 04:22:53;;;;;;;54.40;29.33;;;6.30;99.90;;;;;;5080419;28;20675;-78
2021/11/16 04:25:20;;;;;;;56.47;30.70;;;6.30;99.90;;;;;;5086329;28;20201;-79
2021/11/16 04:27:48;;;;;;;59.43;32.73;;;6.30;99.90;;;;;;5086466;28;20201;-78
2021/11/16 04:30:19;;;;;;;64.93;33.97;;;6.30;99.90;;;;;;5085839;28;20526;-77
2021/11/16 04:32:46;;;;;;;64.90;35.47;;;6.30;99.90;;;;;;5086912;28;20200;-80
2021/11/16 04:35:15;;;;;;;61.87;32.93;;;6.30;99.90;;;;;;5083206;28;20731;-77
2021/11/16 04:37:43;;;;;;;61.53;33.47;;;6.30;99.90;;;;;;5066397;28;20656;-77
2021/11/16 04:40:14;;;;;;;57.47;34.03;;;6.30;99.90;;;;;;5068849;28;20208;-77
2021/11/16 04:42:42;;;;;;;57.73;33.97;;;6.30;99.90;;;;;;5085556;28;20200;-77
2021/11/16 04:45:12;;;;;;;58.93;34.33;;;6.20;99.90;;;;;;5085869;28;20199;-79
2021/11/16 04:47:46;;;;;;;65.50;35.17;;;6.30;99.90;;;;;;5085826;28;20196;-78
2021/11/16 04:50:19;;;;;;;60.00;33.13;;;6.30;99.90;;;;;;5068438;28;20224;-78
2021/11/16 04:52:52;;;;;;;60.20;34.30;;;6.30;99.90;;;;;;5065663;28;20324;-77
2021/11/16 04:55:31;;;;;;;61.50;35.50;;;6.30;99.90;;;;;;5065776;28;20211;-78
2021/11/16 05:03:26;;;;;;;55.47;32.70;;;6.30;99.90;;;;;;5046920;28;20587;-78
2021/11/16 05:05:55;;;;;;;62.90;33.47;;;6.30;99.90;;;;;;5085005;28;20216;-78
2021/11/16 05:08:21;;;;;;;62.50;33.53;;;6.30;99.90;;;;;;5085703;28;20275;-77
2021/11/16 05:10:49;;;;;;;65.97;35.17;;;6.30;99.90;;;;;;5085362;28;20224;-78
2021/11/16 05:13:16;;;;;;;63.20;34.17;;;6.30;99.90;;;;;;5073961;28;20527;-77
2021/11/16 05:15:44;;;;;;;62.70;34.43;;;6.30;99.90;;;;;;5065641;28;20220;-78
2021/11/16 05:18:11;;;;;;;63.60;33.60;;;6.40;99.90;;;;;;5064814;28;20304;-78
2021/11/16 05:20:37;;;;;;;62.27;34.70;;;6.40;99.90;;;;;;5065400;28;20212;-79
2021/11/16 05:23:06;;;;;;;63.40;33.87;;;6.30;99.90;;;;;;5065152;28;20216;-78
2021/11/16 05:25:34;;;;;;;54.80;30.20;;;6.30;99.90;;;;;;5064972;28;20201;-78
2021/11/16 05:28:05;;;;;;;65.17;35.27;;;6.30;99.90;;;;;;5066141;28;20280;-77
2021/11/16 05:30:35;;;;;;;61.13;32.77;;;6.30;99.90;;;;;;5065427;28;20876;-77
2021/11/16 05:33:01;;;;;;;54.70;29.93;;;6.30;99.90;;;;;;5065721;28;20205;-76
2021/11/16 05:35:28;;;;;;;61.27;32.40;;;6.30;99.90;;;;;;5071114;28;20232;-78
2021/11/16 05:37:55;;;;;;;54.40;31.83;;;6.30;99.90;;;;;;5085679;28;20205;-77
2021/11/16 05:40:22;;;;;;;58.73;32.27;;;6.30;99.90;;;;;;5085860;28;20211;-78
2021/11/16 05:42:49;;;;;;;60.43;32.23;;;6.30;99.90;;;;;;5087608;28;20263;-78
2021/11/16 05:45:17;;;;;;;54.37;30.20;;;6.30;99.90;;;;;;5093021;28;20204;-78
2021/11/16 05:47:45;;;;;;;59.73;31.20;;;6.30;99.90;;;;;;5100310;28;20249;-76
2021/11/16 05:50:13;;;;;;;71.70;35.43;;;6.30;99.90;;;;;;5101370;28;21005;-76
2021/11/16 05:52:41;;;;;;;61.03;33.37;;;6.30;99.90;;;;;;5091936;28;20240;-76
2021/11/16 05:55:09;;;;;;;62.60;34.00;;;6.40;99.90;;;;;;5091911;28;20196;-77
2021/11/16 05:57:37;;;;;;;63.43;34.37;;;6.30;99.90;;;;;;5088540;28;20201;-78
2021/11/16 06:00:06;;;;;;;69.47;34.97;;;6.30;99.90;;;;;;5089215;28;20863;-77
2021/11/16 06:02:34;;;;;;;63.63;36.23;;;6.30;99.90;;;;;;5079720;28;20209;-78
2021/11/16 06:05:01;;;;;;;62.27;33.30;;;6.30;99.90;;;;;;5069389;28;20225;-79
2021/11/16 06:07:28;;;;;;;54.73;29.60;;;6.30;99.90;;;;;;5067835;28;20259;-79
2021/11/16 06:09:55;;;;;;;62.83;34.27;;;6.30;99.90;;;;;;5079052;28;20511;-78
2021/11/16 06:12:22;;;;;;;59.27;32.63;;;6.20;99.90;;;;;;5088548;28;20208;-78
2021/11/16 06:14:48;;;;;;;51.87;31.57;;;6.20;99.90;;;;;;5088982;28;20200;-79
2021/11/16 06:17:15;;;;;;;56.57;31.23;;;6.20;99.90;;;;;;5085855;28;20203;-79
2021/11/16 06:19:45;;;;;;;68.63;35.17;;;6.20;99.90;;;;;;5068928;28;20190;-75
2021/11/16 06:22:11;;;;;;;57.43;31.03;;;6.20;99.90;;;;;;5068290;28;20205;-77
2021/11/16 06:24:39;;;;;;;57.47;33.83;;;6.20;99.90;;;;;;5069746;28;20491;-77
2021/11/16 06:27:07;;;;;;;65.13;34.30;;;6.20;99.90;;;;;;5067898;28;20208;-78
2021/11/16 06:29:34;;;;;;;65.97;34.00;;;6.20;99.90;;;;;;5072552;28;20224;-78
2021/11/16 06:32:01;;;;;;;59.57;33.03;;;6.20;99.90;;;;;;5088788;28;20212;-78
2021/11/16 06:34:28;;;;;;;68.80;35.23;;;6.20;99.90;;;;;;5087033;28;20593;-77
2021/11/16 06:36:56;;;;;;;80.97;39.07;;;6.20;99.90;;;;;;5088850;28;20220;-78
2021/11/16 06:39:23;;;;;;;66.07;35.03;;;6.10;99.90;;;;;;5078780;28;20235;-78
2021/11/16 06:41:51;;;;;;;67.07;37.20;;;6.10;99.90;;;;;;5068099;28;20208;-78
2021/11/16 06:44:21;;;;;;;62.97;34.23;;;6.20;99.90;;;;;;5067631;28;20201;-78
2021/11/16 06:46:48;;;;;;;69.10;35.43;;;6.10;99.90;;;;;;5068474;28;20210;-78
2021/11/16 06:49:17;;;;;;;64.30;34.37;;;6.20;99.90;;;;;;5067449;28;20204;-79
2021/11/16 06:51:46;;;;;;;68.60;37.13;;;6.20;99.90;;;;;;5068086;28;20208;-77
2021/11/16 06:54:17;;;;;;;60.83;33.27;;;6.10;99.90;;;;;;5067594;28;20237;-79
2021/11/16 06:56:48;;;;;;;64.50;34.20;;;6.10;99.90;;;;;;5067361;28;20212;-79
2021/11/16 06:59:15;;;;;;;64.27;33.80;;;6.10;99.90;;;;;;5067578;28;20201;-79
2021/11/16 07:01:42;;;;;;;64.27;36.10;;;6.10;99.90;;;;;;5068514;28;20216;-78
2021/11/16 07:04:10;;;;;;;65.57;34.90;;;6.20;99.90;;;;;;5067612;28;20205;-78
2021/11/16 07:06:39;;;;;;;68.63;34.70;;;6.20;99.90;;;;;;5067200;28;20225;-77
2021/11/16 07:09:07;;;;;;;70.17;36.27;;;6.20;99.90;;;;;;5067137;28;20197;-78
2021/11/16 07:11:43;;;;;;;67.30;36.60;;;6.20;99.90;;;;;;5067634;28;20221;-78
2021/11/16 07:14:12;;;;;;;65.23;34.73;;;6.20;99.90;;;;;;5072607;28;20208;-78
2021/11/16 07:16:42;;;;;;;65.03;34.93;;;6.20;99.90;;;;;;5087469;28;20203;-77
2021/11/16 07:19:10;;;;;;;68.60;34.17;;;6.20;99.90;;;;;;5087490;28;20219;-78
2021/11/16 07:21:48;;;;;;;63.30;34.97;;;6.20;99.90;;;;;;5071128;28;20642;-78
2021/11/16 07:24:18;;;;;;;65.37;35.63;;;6.20;99.90;;;;;;5066818;28;20204;-78
2021/11/16 07:26:56;;;;;;;72.30;36.63;;;6.20;99.90;;;;;;5067933;28;20570;-77
2021/11/16 07:29:34;;;;;;;70.73;34.87;;;6.10;99.90;;;;;;5067153;28;20203;-78
2021/11/16 07:32:02;;;;;;;59.17;34.00;;;6.10;99.90;;;;;;5066551;28;20201;-78
2021/11/16 07:34:31;;;;;;;71.57;37.43;;;6.10;99.90;;;;;;5078310;28;20244;-77
2021/11/16 07:37:00;;;;;;;68.20;35.20;;;6.10;99.90;;;;;;5082932;28;20274;-77
2021/11/16 07:39:30;;;;;;;62.93;32.77;;;6.10;99.90;;;;;;5065701;28;20197;-76
2021/11/16 07:42:08;;;;;;;62.63;32.73;;;6.10;99.90;;;;;;5067533;28;20206;-77
2021/11/16 07:44:37;;;;;;;59.23;31.77;;;6.10;99.90;;;;;;5074788;28;20585;-76
2021/11/16 07:47:06;;;;;;;67.80;33.97;;;6.10;99.90;;;;;;5087532;28;20203;-76
2021/11/16 07:49:33;;;;;;;72.47;35.43;;;6.10;99.90;;;;;;5086602;28;20200;-79
2021/11/16 07:52:00;;;;;;;59.43;32.53;;;6.20;99.90;;;;;;5086432;28;20852;-77
2021/11/16 07:54:29;;;;;;;52.97;29.73;;;6.20;99.90;;;;;;5085324;28;20232;-78
2021/11/16 07:57:04;;;;;;;68.70;35.03;;;6.20;99.90;;;;;;5086696;28;20214;-78
2021/11/16 07:59:32;;;;;;;74.53;37.00;;;6.20;99.90;;;;;;5086558;28;20200;-79
2021/11/16 08:02:01;;;;;;;66.83;35.50;;;6.20;99.90;;;;;;5085266;28;20824;-79
2021/11/16 08:04:32;;;;;;;65.23;33.20;;;6.20;99.90;;;;;;5065850;28;20209;-78
2021/11/16 08:07:07;;;;;;;66.67;35.20;;;6.20;99.90;;;;;;5065805;28;20575;-78
2021/11/16 08:09:49;;;;;;;68.90;33.73;;;6.20;99.90;;;;;;5066125;28;20197;-78
2021/11/16 08:12:28;;;;;;;69.50;33.70;;;6.20;99.90;;;;;;5066884;28;20205;-78
2021/11/16 08:15:01;;;;;;;71.20;36.27;;;6.20;99.90;;;;;;5066872;28;20212;-78
2021/11/16 08:17:29;;;;;;;70.53;33.27;;;6.20;99.90;;;;;;5067126;28;20250;-78
2021/11/16 08:19:59;;;;;;;64.27;32.00;;;6.30;99.90;;;;;;5066592;28;20201;-75
2021/11/16 08:22:25;;;;;;;71.23;37.07;;;6.20;99.90;;;;;;5066029;28;20201;-75
2021/11/16 08:24:55;;;;;;;71.43;34.97;;;6.20;99.90;;;;;;5068151;28;20662;-78
2021/11/16 08:27:25;;;;;;;65.13;33.67;;;6.20;99.90;;;;;;5084737;28;20204;-79
2021/11/16 08:30:00;;;;;;;64.73;34.27;;;6.20;99.90;;;;;;5086673;28;20208;-78
2021/11/16 08:32:34;;;;;;;61.70;31.50;;;6.20;99.90;;;;;;5086377;28;20199;-77
2021/11/16 08:35:03;;;;;;;60.90;32.17;;;6.20;99.90;;;;;;5084315;28;20240;-79
2021/11/16 08:37:36;;;;;;;61.27;30.70;;;6.20;99.90;;;;;;5086017;28;20512;-77
2021/11/16 08:40:06;;;;;;;65.00;32.83;;;6.20;99.90;;;;;;5083530;28;20988;-78
2021/11/16 08:42:37;;;;;;;60.37;33.93;;;6.20;99.90;;;;;;5064581;28;20823;-77
2021/11/16 08:45:06;;;;;;;56.47;29.33;;;6.20;99.90;;;;;;5065863;28;20206;-77
2021/11/16 08:47:35;;;;;;;60.77;32.70;;;6.30;99.90;;;;;;5079326;28;20331;-77
2021/11/16 08:50:05;;;;;;;61.87;30.50;;;6.20;99.90;;;;;;5085471;28;20215;-76
2021/11/16 08:52:32;;;;;;;60.13;32.90;;;6.30;99.90;;;;;;5082275;28;20213;-76
2021/11/16 08:55:02;;;;;;;57.00;30.73;;;6.30;99.90;;;;;;5065373;28;20236;-77
2021/11/16 08:57:31;;;;;;;67.33;34.10;;;6.30;99.90;;;;;;5069438;28;20273;-78
2021/11/16 09:00:00;;;;;;;71.03;33.77;;;6.30;99.90;;;;;;5086216;28;20192;-79
2021/11/16 09:02:29;;;;;;;69.13;34.20;;;6.30;99.90;;;;;;5084717;28;20201;-79
2021/11/16 09:04:56;;;;;;;75.17;34.93;;;6.30;99.90;;;;;;5076406;28;20231;-78
2021/11/16 09:07:28;;;;;;;65.13;32.80;;;6.30;99.90;;;;;;5064669;28;20292;-78
2021/11/16 09:10:02;;;;;;;65.93;33.97;;;6.40;99.90;;;;;;5084499;28;20903;-77
2021/11/16 09:12:36;;;;;;;66.27;34.30;;;6.30;99.90;;;;;;5084722;28;20319;-78
2021/11/16 09:15:06;;;;;;;62.53;31.63;;;6.30;99.90;;;;;;5085687;28;20200;-79
2021/11/16 09:17:33;;;;;;;69.97;34.90;;;6.30;99.90;;;;;;5072845;28;20207;-75
2021/11/16 09:20:15;;;;;;;70.40;35.07;;;6.30;99.90;;;;;;5085318;28;20236;-77
2021/11/16 09:22:42;;;;;;;62.87;32.87;;;6.20;99.90;;;;;;5084001;28;20261;-78
2021/11/16 09:25:21;;;;;;;64.17;32.23;;;6.20;99.90;;;;;;5084131;28;20211;-77
2021/11/16 09:27:50;;;;;;;65.53;32.67;;;6.30;99.90;;;;;;5085500;28;20205;-76
2021/11/16 09:30:19;;;;;;;72.33;35.53;;;6.30;99.90;;;;;;5083892;28;20236;-78
2021/11/16 09:33:04;;;;;;;68.03;32.27;;;6.30;99.90;;;;;;5085825;28;20207;-77
2021/11/16 09:35:49;;;;;;;75.93;38.00;;;6.30;99.90;;;;;;5084954;28;20224;-78
2021/11/16 09:38:32;;;;;;;60.57;30.67;;;6.30;99.90;;;;;;5083676;28;20192;-78
2021/11/16 09:40:59;;;;;;;70.00;35.13;;;6.40;99.90;;;;;;5083869;28;20189;-79
2021/11/16 09:43:26;;;;;;;67.57;32.20;;;6.30;99.90;;;;;;5065237;28;20491;-75
2021/11/16 09:45:54;;;;;;;65.20;30.87;;;6.40;99.90;;;;;;5064747;28;20212;-78
2021/11/16 09:48:26;;;;;;;76.40;35.90;;;6.40;99.90;;;;;;5065209;28;20201;-78
2021/11/16 09:50:53;;;;;;;68.00;32.07;;;6.40;99.90;;;;;;5078704;28;20223;-78
2021/11/16 09:53:20;;;;;;;64.53;33.60;;;6.40;99.90;;;;;;5084960;28;20663;-77
2021/11/16 09:55:47;;;;;;;67.87;34.57;;;6.40;99.90;;;;;;5085624;28;20205;-78
2021/11/16 09:58:23;;;;;;;69.03;33.73;;;6.50;99.90;;;;;;5084966;28;20204;-78
2021/11/16 10:00:51;;;;;;;74.93;36.10;;;6.50;99.90;;;;;;5078195;28;20648;-77
2021/11/16 10:03:22;;;;;;;70.10;33.37;;;6.40;99.90;;;;;;5084770;28;20192;-77
2021/11/16 10:05:53;;;;;;;66.83;32.97;;;6.40;99.90;;;;;;5079655;28;20232;-79
2021/11/16 10:08:20;;;;;;;64.17;31.57;;;6.40;99.90;;;;;;5064824;28;20233;-78
2021/11/16 10:10:53;;;;;;;61.47;31.00;;;6.40;99.90;;;;;;5064610;28;20981;-79
2021/11/16 10:13:23;;;;;;;64.43;32.27;;;6.50;99.90;;;;;;5064398;28;20666;-78
2021/11/16 10:15:53;;;;;;;69.43;35.37;;;6.50;99.90;;;;;;5063516;28;20207;-76
2021/11/16 10:18:23;;;;;;;66.53;32.63;;;6.50;99.90;;;;;;5064146;28;20669;-78
2021/11/16 10:20:53;;;;;;;62.27;30.63;;;6.50;99.90;;;;;;5064473;28;20190;-78
2021/11/16 10:23:31;;;;;;;67.03;34.00;;;6.60;99.90;;;;;;5065401;28;20213;-78
2021/11/16 10:25:59;;;;;;;69.60;35.33;;;6.60;99.90;;;;;;5073902;28;20207;-76
2021/11/16 10:28:26;;;;;;;68.37;32.90;;;6.60;99.90;;;;;;5074445;28;20589;-78
2021/11/16 10:30:58;;;;;;;73.43;36.00;;;6.60;99.90;;;;;;5076574;28;20426;-77
2021/11/16 10:33:27;;;;;;;59.97;32.37;;;6.60;99.90;;;;;;5077673;28;20202;-76
2021/11/16 10:35:57;;;;;;;69.57;34.97;;;6.60;99.90;;;;;;5076510;28;20232;-77
2021/11/16 10:38:26;;;;;;;65.43;31.93;;;6.60;99.90;;;;;;5076997;28;20220;-78
2021/11/16 10:40:54;;;;;;;71.37;35.77;;;6.60;99.90;;;;;;5077566;28;20511;-78
2021/11/16 10:43:22;;;;;;;69.90;35.10;;;6.60;99.90;;;;;;5076889;28;20216;-78
2021/11/16 10:45:51;;;;;;;71.57;35.77;;;6.60;99.90;;;;;;5075793;28;20216;-78
2021/11/16 10:48:22;;;;;;;75.40;39.07;;;6.70;99.90;;;;;;5066564;28;20232;-79
2021/11/16 10:50:52;;;;;;;74.53;37.93;;;6.70;99.90;;;;;;5067703;28;20760;-78
2021/11/16 10:53:21;;;;;;;75.83;36.70;;;6.70;99.90;;;;;;5085617;28;20647;-77
2021/11/16 10:55:50;;;;;;;72.53;34.47;;;6.70;99.90;;;;;;5086992;28;20204;-78
2021/11/16 10:58:18;;;;;;;64.53;32.23;;;6.70;99.90;;;;;;5087568;28;20284;-76
2021/11/16 11:00:50;;;;;;;75.83;36.70;;;6.60;99.90;;;;;;5077839;28;20206;-77
2021/11/16 11:03:21;;;;;;;72.17;35.50;;;6.60;99.90;;;;;;5067445;28;20189;-79
2021/11/16 11:05:53;;;;;;;65.33;34.30;;;6.60;99.90;;;;;;5067778;28;20216;-78
2021/11/16 11:08:34;;;;;;;64.07;32.23;;;6.60;99.90;;;;;;5066575;28;20220;-77
2021/11/16 11:11:02;;;;;;;63.03;30.60;;;6.60;99.90;;;;;;5067526;28;20813;-76
2021/11/16 11:13:31;;;;;;;60.73;32.97;;;6.70;99.90;;;;;;5067827;28;20193;-77
2021/11/16 11:15:59;;;;;;;72.77;35.93;;;6.70;99.90;;;;;;5067583;28;20197;-77
2021/11/16 11:18:34;;;;;;;75.23;36.70;;;6.70;99.90;;;;;;5082663;28;20204;-76
2021/11/16 11:21:06;;;;;;;69.23;34.57;;;6.70;99.90;;;;;;5086068;28;20207;-78
2021/11/16 11:23:40;;;;;;;75.27;36.67;;;6.70;99.90;;;;;;5086050;28;20243;-79
2021/11/16 11:26:36;;;;;;;68.03;34.07;;;6.70;99.90;;;;;;5080091;28;20667;-79
2021/11/16 11:29:20;;;;;;;70.50;34.37;;;6.70;99.90;;;;;;5076124;28;20216;-80
2021/11/16 11:31:49;;;;;;;67.40;33.97;;;6.70;99.90;;;;;;5076632;28;20248;-78
2021/11/16 11:34:17;;;;;;;68.00;34.83;;;6.70;99.90;;;;;;5075295;28;20201;-78
2021/11/16 11:36:45;;;;;;;74.73;34.63;;;6.80;99.90;;;;;;5075334;28;20244;-77
2021/11/16 11:39:22;;;;;;;65.20;32.70;;;6.80;99.90;;;;;;5075374;28;20375;-77
2021/11/16 11:41:55;;;;;;;72.63;36.87;;;6.80;99.90;;;;;;5075074;28;20204;-78
2021/11/16 11:44:23;;;;;;;72.80;35.57;;;6.80;99.90;;;;;;5075822;28;20929;-77
2021/11/16 11:46:55;;;;;;;81.17;37.37;;;6.80;99.90;;;;;;5075233;28;20255;-79
2021/11/16 11:49:23;;;;;;;80.87;38.63;;;6.80;99.90;;;;;;5076144;28;20565;-79
2021/11/16 11:51:53;;;;;;;73.10;34.60;;;6.70;99.90;;;;;;5075782;28;20224;-78
2021/11/16 11:54:20;;;;;;;74.97;37.03;;;6.70;99.90;;;;;;5072583;28;20245;-80
2021/11/16 11:56:50;;;;;;;79.67;39.97;;;6.70;99.90;;;;;;5076255;28;20201;-79
2021/11/16 11:59:18;;;;;;;72.20;36.73;;;6.60;99.90;;;;;;5074563;28;20205;-79
2021/11/16 12:01:46;;;;;;;80.10;38.93;;;6.60;99.90;;;;;;5075567;28;20216;-77
2021/11/16 12:04:17;;;;;;;72.97;35.83;;;6.70;99.90;;;;;;5078185;28;20331;-76
2021/11/16 12:06:45;;;;;;;82.90;38.67;;;6.70;99.90;;;;;;5076261;28;20212;-78
2021/11/16 12:09:15;;;;;;;84.87;39.73;;;6.70;99.90;;;;;;5077217;28;20215;-77
2021/11/16 12:11:42;;;;;;;77.07;40.27;;;6.70;99.90;;;;;;5075282;28;20570;-76
2021/11/16 12:14:16;;;;;;;80.60;39.47;;;6.60;99.90;;;;;;5075869;28;20227;-77
2021/11/16 12:16:53;;;;;;;84.20;37.90;;;6.60;99.90;;;;;;5076642;28;20208;-79
2021/11/16 12:19:20;;;;;;;72.70;35.80;;;6.60;99.90;;;;;;5075305;28;20516;-78
2021/11/16 12:21:48;;;;;;;73.27;36.07;;;6.60;99.90;;;;;;5075287;28;20208;-77
2021/11/16 12:24:30;;;;;;;78.67;38.60;;;6.70;99.90;;;;;;5074287;28;20204;-78
2021/11/16 12:27:00;;;;;;;78.80;40.57;;;6.70;99.90;;;;;;5073868;28;20200;-80
2021/11/16 12:29:29;;;;;;;80.23;36.50;;;6.60;99.90;;;;;;5075868;28;20197;-78
2021/11/16 12:32:13;;;;;;;77.27;37.93;;;6.60;99.90;;;;;;5075766;28;20910;-79
2021/11/16 12:34:47;;;;;;;70.93;36.03;;;6.60;99.90;;;;;;5074846;28;20512;-78
2021/11/16 12:37:33;;;;;;;82.43;37.63;;;6.60;99.90;;;;;;5073698;28;20308;-79
2021/11/16 12:40:04;;;;;;;72.63;35.23;;;6.70;99.90;;;;;;5076600;28;20196;-79
2021/11/16 12:42:31;;;;;;;71.27;36.00;;;6.70;99.90;;;;;;5085525;28;20547;-78
2021/11/16 12:45:00;;;;;;;78.03;34.63;;;6.70;99.90;;;;;;5086256;28;20208;-78
2021/11/16 12:47:28;;;;;;;79.13;36.03;;;6.70;99.90;;;;;;5085638;28;20281;-77
2021/11/16 12:50:09;;;;;;;78.93;36.20;;;6.70;99.90;;;;;;5085339;28;20288;-79
2021/11/16 12:52:44;;;;;;;73.67;36.27;;;6.60;99.90;;;;;;5084897;28;20655;-79